Nolanville, Texas
Current Conditions -  °F | °C
As of 11:55 AM on Friday 21 Nov 2014 (Local Time) from KILE Reporting Station
Overcast Overcast  
Wind Chill: 70°   Ceiling: 2000
Heat Index: 70°   Visibility: 10mi
Dew Point: 61°   Wind: 10mph
Humidity: 73%   Direction: 100°E
Pressure: 30.05"   Gusts: NA
Location:  31.08°N, 97.61°W
Report Text: KILE 211755Z AUTO 10009KT 10SM SCT012 BKN020 OVC040 21/16 A3005 RMK AO1 10210 20160 57017
Loading
Personal Weather Stations






























Interactive Weather Map New forecast layout! Learn more

10-Day Weather Forecast

Advertisements
Track Severe Weather on mobile